sensor_id;sensor_type;location;lat;lon;timestamp;P1;durP1;ratioP1;P2;durP2;ratioP2
75297;SDS011;63896;45.990;18.688;2022-11-10T00:02:46;64.43;;;35.97;;
75297;SDS011;63896;45.990;18.688;2022-11-10T00:06:09;70.18;;;37.50;;
75297;SDS011;63896;45.990;18.688;2022-11-10T00:09:30;67.28;;;37.00;;
75297;SDS011;63896;45.990;18.688;2022-11-10T00:12:51;68.05;;;35.67;;
75297;SDS011;63896;45.990;18.688;2022-11-10T00:16:13;64.80;;;36.45;;
75297;SDS011;63896;45.990;18.688;2022-11-10T00:19:53;66.80;;;37.07;;
75297;SDS011;63896;45.990;18.688;2022-11-10T00:23:14;68.25;;;37.42;;
75297;SDS011;63896;45.990;18.688;2022-11-10T00:26:35;72.55;;;39.17;;
75297;SDS011;63896;45.990;18.688;2022-11-10T00:29:56;74.20;;;38.65;;
75297;SDS011;63896;45.990;18.688;2022-11-10T00:33:18;77.53;;;39.55;;
75297;SDS011;63896;45.990;18.688;2022-11-10T00:36:40;81.87;;;43.27;;
75297;SDS011;63896;45.990;18.688;2022-11-10T00:40:02;79.47;;;40.70;;
75297;SDS011;63896;45.990;18.688;2022-11-10T00:43:23;78.45;;;40.78;;
75297;SDS011;63896;45.990;18.688;2022-11-10T00:46:53;72.75;;;39.15;;
75297;SDS011;63896;45.990;18.688;2022-11-10T00:50:15;70.68;;;37.30;;
75297;SDS011;63896;45.990;18.688;2022-11-10T00:53:36;68.63;;;36.47;;
75297;SDS011;63896;45.990;18.688;2022-11-10T00:56:57;75.00;;;37.78;;
75297;SDS011;63896;45.990;18.688;2022-11-10T01:00:18;67.30;;;36.80;;
75297;SDS011;63896;45.990;18.688;2022-11-10T01:03:40;68.35;;;37.53;;
75297;SDS011;63896;45.990;18.688;2022-11-10T01:07:01;68.15;;;37.83;;
75297;SDS011;63896;45.990;18.688;2022-11-10T01:10:24;68.93;;;35.63;;
75297;SDS011;63896;45.990;18.688;2022-11-10T01:13:46;67.85;;;36.33;;
75297;SDS011;63896;45.990;18.688;2022-11-10T01:17:07;64.93;;;35.85;;
75297;SDS011;63896;45.990;18.688;2022-11-10T01:20:28;66.55;;;35.58;;
75297;SDS011;63896;45.990;18.688;2022-11-10T01:23:49;67.07;;;37.67;;
75297;SDS011;63896;45.990;18.688;2022-11-10T01:27:10;68.27;;;35.43;;
75297;SDS011;63896;45.990;18.688;2022-11-10T01:30:31;68.70;;;36.75;;
75297;SDS011;63896;45.990;18.688;2022-11-10T01:33:53;64.70;;;36.03;;
75297;SDS011;63896;45.990;18.688;2022-11-10T01:37:14;69.95;;;37.83;;
75297;SDS011;63896;45.990;18.688;2022-11-10T01:40:36;70.35;;;38.50;;
75297;SDS011;63896;45.990;18.688;2022-11-10T01:44:10;70.63;;;37.17;;
75297;SDS011;63896;45.990;18.688;2022-11-10T01:47:41;68.88;;;36.90;;
75297;SDS011;63896;45.990;18.688;2022-11-10T01:51:47;75.10;;;39.20;;
75297;SDS011;63896;45.990;18.688;2022-11-10T01:54:53;70.25;;;37.25;;
75297;SDS011;63896;45.990;18.688;2022-11-10T01:58:15;69.50;;;36.80;;
75297;SDS011;63896;45.990;18.688;2022-11-10T02:01:40;70.93;;;36.53;;
75297;SDS011;63896;45.990;18.688;2022-11-10T02:05:02;68.38;;;37.42;;
75297;SDS011;63896;45.990;18.688;2022-11-10T02:08:24;68.85;;;36.45;;
75297;SDS011;63896;45.990;18.688;2022-11-10T02:11:51;70.43;;;38.17;;
75297;SDS011;63896;45.990;18.688;2022-11-10T02:15:15;73.60;;;38.30;;
75297;SDS011;63896;45.990;18.688;2022-11-10T02:18:37;68.33;;;36.50;;
75297;SDS011;63896;45.990;18.688;2022-11-10T02:21:59;72.82;;;37.83;;
75297;SDS011;63896;45.990;18.688;2022-11-10T02:25:21;70.10;;;37.85;;
75297;SDS011;63896;45.990;18.688;2022-11-10T02:28:42;74.15;;;37.17;;
75297;SDS011;63896;45.990;18.688;2022-11-10T02:32:04;69.07;;;37.08;;
75297;SDS011;63896;45.990;18.688;2022-11-10T02:35:25;64.30;;;35.93;;
75297;SDS011;63896;45.990;18.688;2022-11-10T02:38:46;69.72;;;37.17;;
75297;SDS011;63896;45.990;18.688;2022-11-10T02:42:08;70.20;;;37.40;;
75297;SDS011;63896;45.990;18.688;2022-11-10T02:45:30;72.43;;;38.65;;
75297;SDS011;63896;45.990;18.688;2022-11-10T02:48:51;69.28;;;37.75;;
75297;SDS011;63896;45.990;18.688;2022-11-10T02:52:12;72.20;;;38.27;;
75297;SDS011;63896;45.990;18.688;2022-11-10T02:55:34;72.13;;;37.95;;
75297;SDS011;63896;45.990;18.688;2022-11-10T02:58:55;72.93;;;36.08;;
75297;SDS011;63896;45.990;18.688;2022-11-10T03:02:17;74.32;;;38.72;;
75297;SDS011;63896;45.990;18.688;2022-11-10T03:05:38;76.07;;;39.78;;
75297;SDS011;63896;45.990;18.688;2022-11-10T03:09:00;83.30;;;46.37;;
75297;SDS011;63896;45.990;18.688;2022-11-10T03:12:22;76.68;;;38.92;;
75297;SDS011;63896;45.990;18.688;2022-11-10T03:15:43;74.13;;;39.22;;
75297;SDS011;63896;45.990;18.688;2022-11-10T03:19:04;77.65;;;40.10;;
75297;SDS011;63896;45.990;18.688;2022-11-10T03:22:25;72.82;;;38.47;;
75297;SDS011;63896;45.990;18.688;2022-11-10T03:25:46;76.83;;;40.33;;
75297;SDS011;63896;45.990;18.688;2022-11-10T03:29:08;75.25;;;39.55;;
75297;SDS011;63896;45.990;18.688;2022-11-10T03:32:29;76.05;;;39.83;;
75297;SDS011;63896;45.990;18.688;2022-11-10T03:35:50;79.72;;;41.00;;
75297;SDS011;63896;45.990;18.688;2022-11-10T03:39:12;79.72;;;40.95;;
75297;SDS011;63896;45.990;18.688;2022-11-10T03:42:33;86.03;;;42.20;;
75297;SDS011;63896;45.990;18.688;2022-11-10T03:45:54;83.93;;;39.88;;
75297;SDS011;63896;45.990;18.688;2022-11-10T03:49:16;80.40;;;39.13;;
75297;SDS011;63896;45.990;18.688;2022-11-10T03:52:37;82.68;;;40.90;;
75297;SDS011;63896;45.990;18.688;2022-11-10T03:56:02;85.70;;;39.75;;
75297;SDS011;63896;45.990;18.688;2022-11-10T03:59:25;81.20;;;44.23;;
75297;SDS011;63896;45.990;18.688;2022-11-10T04:02:46;104.95;;;61.55;;
75297;SDS011;63896;45.990;18.688;2022-11-10T04:06:09;80.03;;;42.90;;
75297;SDS011;63896;45.990;18.688;2022-11-10T04:09:49;79.03;;;39.03;;
75297;SDS011;63896;45.990;18.688;2022-11-10T04:13:11;75.45;;;37.72;;
75297;SDS011;63896;45.990;18.688;2022-11-10T04:16:51;68.23;;;34.63;;
75297;SDS011;63896;45.990;18.688;2022-11-10T04:20:12;68.30;;;33.05;;
75297;SDS011;63896;45.990;18.688;2022-11-10T04:23:33;66.13;;;34.45;;
75297;SDS011;63896;45.990;18.688;2022-11-10T04:26:54;62.65;;;33.00;;
75297;SDS011;63896;45.990;18.688;2022-11-10T04:30:16;59.63;;;31.83;;
75297;SDS011;63896;45.990;18.688;2022-11-10T04:33:45;60.87;;;31.37;;
75297;SDS011;63896;45.990;18.688;2022-11-10T04:37:07;57.92;;;31.52;;
75297;SDS011;63896;45.990;18.688;2022-11-10T04:40:29;60.95;;;32.08;;
75297;SDS011;63896;45.990;18.688;2022-11-10T04:43:51;58.78;;;31.05;;
75297;SDS011;63896;45.990;18.688;2022-11-10T04:47:12;63.72;;;31.38;;
75297;SDS011;63896;45.990;18.688;2022-11-10T04:50:34;59.23;;;30.83;;
75297;SDS011;63896;45.990;18.688;2022-11-10T04:53:56;60.28;;;31.65;;
75297;SDS011;63896;45.990;18.688;2022-11-10T04:57:18;60.08;;;32.60;;
75297;SDS011;63896;45.990;18.688;2022-11-10T05:00:39;59.85;;;30.58;;
75297;SDS011;63896;45.990;18.688;2022-11-10T05:04:02;64.43;;;33.13;;
75297;SDS011;63896;45.990;18.688;2022-11-10T05:07:25;56.83;;;30.57;;
75297;SDS011;63896;45.990;18.688;2022-11-10T05:10:48;57.63;;;30.85;;
75297;SDS011;63896;45.990;18.688;2022-11-10T05:14:09;65.03;;;31.52;;
75297;SDS011;63896;45.990;18.688;2022-11-10T05:17:30;63.72;;;32.75;;
75297;SDS011;63896;45.990;18.688;2022-11-10T05:20:52;58.80;;;31.88;;
75297;SDS011;63896;45.990;18.688;2022-11-10T05:24:13;60.33;;;30.80;;
75297;SDS011;63896;45.990;18.688;2022-11-10T05:27:34;59.33;;;31.63;;
75297;SDS011;63896;45.990;18.688;2022-11-10T05:30:56;59.55;;;31.50;;
75297;SDS011;63896;45.990;18.688;2022-11-10T05:34:17;57.65;;;31.00;;
75297;SDS011;63896;45.990;18.688;2022-11-10T05:37:39;58.22;;;31.58;;
75297;SDS011;63896;45.990;18.688;2022-11-10T05:41:00;57.70;;;31.53;;
75297;SDS011;63896;45.990;18.688;2022-11-10T05:44:21;63.78;;;32.05;;
75297;SDS011;63896;45.990;18.688;2022-11-10T05:47:42;58.97;;;31.65;;
75297;SDS011;63896;45.990;18.688;2022-11-10T05:51:04;64.55;;;32.92;;
75297;SDS011;63896;45.990;18.688;2022-11-10T05:54:25;53.50;;;30.98;;
75297;SDS011;63896;45.990;18.688;2022-11-10T05:57:47;57.40;;;30.50;;
75297;SDS011;63896;45.990;18.688;2022-11-10T06:01:10;61.92;;;31.55;;
75297;SDS011;63896;45.990;18.688;2022-11-10T06:04:31;63.92;;;31.38;;
75297;SDS011;63896;45.990;18.688;2022-11-10T06:07:53;60.65;;;31.92;;
75297;SDS011;63896;45.990;18.688;2022-11-10T06:11:15;60.35;;;32.20;;
75297;SDS011;63896;45.990;18.688;2022-11-10T06:14:37;61.20;;;34.57;;
75297;SDS011;63896;45.990;18.688;2022-11-10T06:17:58;64.03;;;33.35;;
75297;SDS011;63896;45.990;18.688;2022-11-10T06:21:20;64.38;;;33.20;;
75297;SDS011;63896;45.990;18.688;2022-11-10T06:24:41;60.40;;;32.17;;
75297;SDS011;63896;45.990;18.688;2022-11-10T06:28:03;63.85;;;32.72;;
75297;SDS011;63896;45.990;18.688;2022-11-10T06:31:25;62.97;;;30.83;;
75297;SDS011;63896;45.990;18.688;2022-11-10T06:34:46;59.70;;;30.17;;
75297;SDS011;63896;45.990;18.688;2022-11-10T06:38:09;58.40;;;29.17;;
75297;SDS011;63896;45.990;18.688;2022-11-10T06:41:34;62.95;;;30.80;;
75297;SDS011;63896;45.990;18.688;2022-11-10T06:44:56;61.03;;;31.75;;
75297;SDS011;63896;45.990;18.688;2022-11-10T06:48:38;61.67;;;32.27;;
75297;SDS011;63896;45.990;18.688;2022-11-10T06:51:59;58.78;;;31.20;;
75297;SDS011;63896;45.990;18.688;2022-11-10T06:55:21;63.03;;;29.52;;
75297;SDS011;63896;45.990;18.688;2022-11-10T06:58:42;50.53;;;27.50;;
75297;SDS011;63896;45.990;18.688;2022-11-10T07:02:05;51.75;;;26.73;;
75297;SDS011;63896;45.990;18.688;2022-11-10T07:05:34;48.57;;;25.63;;
75297;SDS011;63896;45.990;18.688;2022-11-10T07:08:56;47.08;;;25.58;;
75297;SDS011;63896;45.990;18.688;2022-11-10T07:12:18;50.30;;;25.25;;
75297;SDS011;63896;45.990;18.688;2022-11-10T07:15:39;47.35;;;25.63;;
75297;SDS011;63896;45.990;18.688;2022-11-10T07:19:02;45.10;;;23.23;;
75297;SDS011;63896;45.990;18.688;2022-11-10T07:22:23;48.17;;;24.47;;
75297;SDS011;63896;45.990;18.688;2022-11-10T07:25:45;44.45;;;23.40;;
75297;SDS011;63896;45.990;18.688;2022-11-10T07:29:07;41.40;;;22.35;;
75297;SDS011;63896;45.990;18.688;2022-11-10T07:32:29;42.85;;;23.20;;
75297;SDS011;63896;45.990;18.688;2022-11-10T07:35:51;41.85;;;23.23;;
75297;SDS011;63896;45.990;18.688;2022-11-10T07:39:15;42.47;;;21.87;;
75297;SDS011;63896;45.990;18.688;2022-11-10T07:42:40;42.55;;;22.30;;
75297;SDS011;63896;45.990;18.688;2022-11-10T07:46:01;44.17;;;23.35;;
75297;SDS011;63896;45.990;18.688;2022-11-10T07:49:23;43.42;;;22.88;;
75297;SDS011;63896;45.990;18.688;2022-11-10T07:52:44;45.75;;;22.52;;
75297;SDS011;63896;45.990;18.688;2022-11-10T07:56:06;41.90;;;21.43;;
75297;SDS011;63896;45.990;18.688;2022-11-10T07:59:28;40.83;;;20.25;;
75297;SDS011;63896;45.990;18.688;2022-11-10T08:02:49;44.80;;;21.85;;
75297;SDS011;63896;45.990;18.688;2022-11-10T08:06:12;42.30;;;21.75;;
75297;SDS011;63896;45.990;18.688;2022-11-10T08:09:37;43.60;;;23.42;;
75297;SDS011;63896;45.990;18.688;2022-11-10T08:12:59;43.33;;;21.83;;
75297;SDS011;63896;45.990;18.688;2022-11-10T08:16:22;46.03;;;21.65;;
75297;SDS011;63896;45.990;18.688;2022-11-10T08:19:44;45.67;;;22.50;;
75297;SDS011;63896;45.990;18.688;2022-11-10T08:23:10;40.55;;;20.73;;
75297;SDS011;63896;45.990;18.688;2022-11-10T08:26:32;46.08;;;22.38;;
75297;SDS011;63896;45.990;18.688;2022-11-10T08:29:53;44.53;;;22.00;;
75297;SDS011;63896;45.990;18.688;2022-11-10T08:33:15;48.08;;;21.90;;
75297;SDS011;63896;45.990;18.688;2022-11-10T08:36:38;43.28;;;21.23;;
75297;SDS011;63896;45.990;18.688;2022-11-10T08:40:00;41.63;;;20.55;;
75297;SDS011;63896;45.990;18.688;2022-11-10T08:43:22;43.03;;;20.63;;
75297;SDS011;63896;45.990;18.688;2022-11-10T08:46:44;38.03;;;19.83;;
75297;SDS011;63896;45.990;18.688;2022-11-10T08:50:07;44.38;;;19.80;;
75297;SDS011;63896;45.990;18.688;2022-11-10T08:53:28;39.67;;;19.38;;
75297;SDS011;63896;45.990;18.688;2022-11-10T08:56:49;41.55;;;20.33;;
75297;SDS011;63896;45.990;18.688;2022-11-10T09:00:11;40.83;;;20.27;;
75297;SDS011;63896;45.990;18.688;2022-11-10T09:03:34;39.00;;;18.90;;
75297;SDS011;63896;45.990;18.688;2022-11-10T09:06:55;40.25;;;18.20;;
75297;SDS011;63896;45.990;18.688;2022-11-10T09:10:19;40.25;;;18.50;;
75297;SDS011;63896;45.990;18.688;2022-11-10T09:13:40;43.67;;;18.02;;
75297;SDS011;63896;45.990;18.688;2022-11-10T09:17:05;44.25;;;18.40;;
75297;SDS011;63896;45.990;18.688;2022-11-10T09:20:28;41.97;;;18.80;;
75297;SDS011;63896;45.990;18.688;2022-11-10T09:23:51;42.55;;;19.75;;
75297;SDS011;63896;45.990;18.688;2022-11-10T09:27:12;44.63;;;18.13;;
75297;SDS011;63896;45.990;18.688;2022-11-10T09:30:33;44.72;;;18.42;;
75297;SDS011;63896;45.990;18.688;2022-11-10T09:33:55;42.97;;;18.27;;
75297;SDS011;63896;45.990;18.688;2022-11-10T09:37:19;41.23;;;18.20;;
75297;SDS011;63896;45.990;18.688;2022-11-10T09:44:29;51.50;;;19.95;;
75297;SDS011;63896;45.990;18.688;2022-11-10T09:51:46;50.05;;;18.98;;
75297;SDS011;63896;45.990;18.688;2022-11-10T09:55:28;45.70;;;18.63;;
75297;SDS011;63896;45.990;18.688;2022-11-10T09:58:54;48.92;;;18.52;;
75297;SDS011;63896;45.990;18.688;2022-11-10T10:06:08;48.38;;;19.20;;
75297;SDS011;63896;45.990;18.688;2022-11-10T10:09:34;49.30;;;19.73;;
75297;SDS011;63896;45.990;18.688;2022-11-10T10:24:18;42.13;;;17.13;;
75297;SDS011;63896;45.990;18.688;2022-11-10T10:27:43;36.08;;;16.00;;
75297;SDS011;63896;45.990;18.688;2022-11-10T10:34:45;31.70;;;15.48;;
75297;SDS011;63896;45.990;18.688;2022-11-10T10:38:50;32.03;;;13.98;;
75297;SDS011;63896;45.990;18.688;2022-11-10T10:41:54;34.20;;;14.32;;
75297;SDS011;63896;45.990;18.688;2022-11-10T10:45:20;27.15;;;13.32;;
75297;SDS011;63896;45.990;18.688;2022-11-10T10:48:46;32.70;;;14.23;;
75297;SDS011;63896;45.990;18.688;2022-11-10T10:52:22;33.35;;;14.88;;
75297;SDS011;63896;45.990;18.688;2022-11-10T11:04:39;36.05;;;15.77;;
75297;SDS011;63896;45.990;18.688;2022-11-10T11:08:04;33.92;;;14.45;;
75297;SDS011;63896;45.990;18.688;2022-11-10T11:11:30;29.75;;;14.75;;
75297;SDS011;63896;45.990;18.688;2022-11-10T11:18:43;24.85;;;11.95;;
75297;SDS011;63896;45.990;18.688;2022-11-10T11:26:08;24.10;;;12.15;;
75297;SDS011;63896;45.990;18.688;2022-11-10T11:40:20;25.90;;;12.25;;
75297;SDS011;63896;45.990;18.688;2022-11-10T11:44:14;28.60;;;12.05;;
75297;SDS011;63896;45.990;18.688;2022-11-10T11:48:09;26.70;;;12.10;;
75297;SDS011;63896;45.990;18.688;2022-11-10T11:55:15;27.15;;;12.15;;
75297;SDS011;63896;45.990;18.688;2022-11-10T12:06:16;31.02;;;14.70;;
75297;SDS011;63896;45.990;18.688;2022-11-10T12:09:55;29.50;;;13.43;;
75297;SDS011;63896;45.990;18.688;2022-11-10T12:13:35;28.10;;;13.35;;
75297;SDS011;63896;45.990;18.688;2022-11-10T12:21:22;32.30;;;14.15;;
75297;SDS011;63896;45.990;18.688;2022-11-10T12:28:27;25.07;;;12.50;;
75297;SDS011;63896;45.990;18.688;2022-11-10T12:35:53;28.10;;;13.05;;
75297;SDS011;63896;45.990;18.688;2022-11-10T12:39:22;25.33;;;11.23;;
75297;SDS011;63896;45.990;18.688;2022-11-10T12:42:54;23.10;;;11.35;;
75297;SDS011;63896;45.990;18.688;2022-11-10T12:46:19;20.57;;;11.07;;
75297;SDS011;63896;45.990;18.688;2022-11-10T12:49:52;22.80;;;12.10;;
75297;SDS011;63896;45.990;18.688;2022-11-10T12:53:28;23.10;;;11.60;;
75297;SDS011;63896;45.990;18.688;2022-11-10T12:56:52;22.10;;;11.57;;
75297;SDS011;63896;45.990;18.688;2022-11-10T13:01:03;23.75;;;12.43;;
75297;SDS011;63896;45.990;18.688;2022-11-10T13:04:16;32.10;;;12.90;;
75297;SDS011;63896;45.990;18.688;2022-11-10T13:07:43;21.92;;;12.68;;
75297;SDS011;63896;45.990;18.688;2022-11-10T13:14:33;19.75;;;11.02;;
75297;SDS011;63896;45.990;18.688;2022-11-10T13:17:54;21.98;;;11.70;;
75297;SDS011;63896;45.990;18.688;2022-11-10T13:21:16;21.37;;;12.03;;
75297;SDS011;63896;45.990;18.688;2022-11-10T13:24:37;21.55;;;11.82;;
75297;SDS011;63896;45.990;18.688;2022-11-10T13:28:00;25.60;;;10.98;;
75297;SDS011;63896;45.990;18.688;2022-11-10T13:34:46;26.50;;;12.45;;
75297;SDS011;63896;45.990;18.688;2022-11-10T13:38:16;26.87;;;13.83;;
75297;SDS011;63896;45.990;18.688;2022-11-10T13:41:58;24.23;;;12.80;;
75297;SDS011;63896;45.990;18.688;2022-11-10T13:45:31;24.90;;;13.23;;
75297;SDS011;63896;45.990;18.688;2022-11-10T14:07:19;20.95;;;11.00;;
75297;SDS011;63896;45.990;18.688;2022-11-10T14:14:42;17.93;;;10.10;;
75297;SDS011;63896;45.990;18.688;2022-11-10T14:17:59;26.65;;;12.23;;
75297;SDS011;63896;45.990;18.688;2022-11-10T14:21:22;27.58;;;12.68;;
75297;SDS011;63896;45.990;18.688;2022-11-10T14:28:33;20.38;;;10.77;;
75297;SDS011;63896;45.990;18.688;2022-11-10T14:31:59;23.40;;;11.57;;
75297;SDS011;63896;45.990;18.688;2022-11-10T14:35:25;21.15;;;12.13;;
75297;SDS011;63896;45.990;18.688;2022-11-10T14:38:50;23.05;;;12.77;;
75297;SDS011;63896;45.990;18.688;2022-11-10T14:42:13;24.80;;;12.80;;
75297;SDS011;63896;45.990;18.688;2022-11-10T14:45:48;21.52;;;13.20;;
75297;SDS011;63896;45.990;18.688;2022-11-10T14:49:10;30.23;;;16.30;;
75297;SDS011;63896;45.990;18.688;2022-11-10T14:52:35;30.17;;;17.48;;
75297;SDS011;63896;45.990;18.688;2022-11-10T14:55:59;39.53;;;19.33;;
75297;SDS011;63896;45.990;18.688;2022-11-10T14:59:22;43.35;;;21.67;;
75297;SDS011;63896;45.990;18.688;2022-11-10T15:02:45;47.80;;;25.40;;
75297;SDS011;63896;45.990;18.688;2022-11-10T15:06:08;49.47;;;27.43;;
75297;SDS011;63896;45.990;18.688;2022-11-10T15:09:31;51.40;;;27.05;;
75297;SDS011;63896;45.990;18.688;2022-11-10T15:23:53;38.67;;;21.50;;
75297;SDS011;63896;45.990;18.688;2022-11-10T15:26:57;39.72;;;21.70;;
75297;SDS011;63896;45.990;18.688;2022-11-10T15:30:22;37.13;;;20.42;;
75297;SDS011;63896;45.990;18.688;2022-11-10T15:33:45;29.00;;;16.73;;
75297;SDS011;63896;45.990;18.688;2022-11-10T15:37:19;31.17;;;16.88;;
75297;SDS011;63896;45.990;18.688;2022-11-10T15:40:51;29.30;;;16.90;;
75297;SDS011;63896;45.990;18.688;2022-11-10T15:44:25;46.20;;;23.50;;
75297;SDS011;63896;45.990;18.688;2022-11-10T15:47:50;47.25;;;26.10;;
75297;SDS011;63896;45.990;18.688;2022-11-10T15:51:13;50.22;;;25.92;;
75297;SDS011;63896;45.990;18.688;2022-11-10T15:54:34;59.13;;;30.50;;
75297;SDS011;63896;45.990;18.688;2022-11-10T15:57:57;81.93;;;39.73;;
75297;SDS011;63896;45.990;18.688;2022-11-10T16:01:18;98.93;;;44.65;;
75297;SDS011;63896;45.990;18.688;2022-11-10T16:04:40;76.93;;;37.58;;
75297;SDS011;63896;45.990;18.688;2022-11-10T16:08:01;68.25;;;32.45;;
75297;SDS011;63896;45.990;18.688;2022-11-10T16:11:23;62.03;;;31.25;;
75297;SDS011;63896;45.990;18.688;2022-11-10T16:14:46;56.50;;;28.87;;
75297;SDS011;63896;45.990;18.688;2022-11-10T16:18:13;58.78;;;28.08;;
75297;SDS011;63896;45.990;18.688;2022-11-10T16:21:35;51.85;;;25.08;;
75297;SDS011;63896;45.990;18.688;2022-11-10T16:24:57;46.75;;;24.48;;
75297;SDS011;63896;45.990;18.688;2022-11-10T16:28:23;43.35;;;23.15;;
75297;SDS011;63896;45.990;18.688;2022-11-10T16:31:46;43.37;;;21.43;;
75297;SDS011;63896;45.990;18.688;2022-11-10T16:35:11;35.97;;;19.60;;
75297;SDS011;63896;45.990;18.688;2022-11-10T16:38:34;35.72;;;18.33;;
75297;SDS011;63896;45.990;18.688;2022-11-10T16:41:55;34.30;;;17.92;;
75297;SDS011;63896;45.990;18.688;2022-11-10T16:45:17;38.53;;;19.05;;
75297;SDS011;63896;45.990;18.688;2022-11-10T16:48:41;59.30;;;26.23;;
75297;SDS011;63896;45.990;18.688;2022-11-10T16:52:15;56.30;;;26.63;;
75297;SDS011;63896;45.990;18.688;2022-11-10T16:55:38;58.90;;;28.13;;
75297;SDS011;63896;45.990;18.688;2022-11-10T16:59:00;51.75;;;24.95;;
75297;SDS011;63896;45.990;18.688;2022-11-10T17:02:25;52.53;;;24.17;;
75297;SDS011;63896;45.990;18.688;2022-11-10T17:05:50;50.37;;;23.40;;
75297;SDS011;63896;45.990;18.688;2022-11-10T17:09:13;44.78;;;21.67;;
75297;SDS011;63896;45.990;18.688;2022-11-10T17:12:38;46.15;;;24.17;;
75297;SDS011;63896;45.990;18.688;2022-11-10T17:16:05;51.63;;;24.27;;
75297;SDS011;63896;45.990;18.688;2022-11-10T17:19:47;47.03;;;23.27;;
75297;SDS011;63896;45.990;18.688;2022-11-10T17:23:09;38.37;;;21.30;;
75297;SDS011;63896;45.990;18.688;2022-11-10T17:26:33;37.17;;;18.70;;
75297;SDS011;63896;45.990;18.688;2022-11-10T17:29:55;35.58;;;17.35;;
75297;SDS011;63896;45.990;18.688;2022-11-10T17:33:17;33.30;;;16.88;;
75297;SDS011;63896;45.990;18.688;2022-11-10T17:36:38;36.22;;;17.45;;
75297;SDS011;63896;45.990;18.688;2022-11-10T17:40:01;34.53;;;17.47;;
75297;SDS011;63896;45.990;18.688;2022-11-10T17:43:33;31.50;;;16.67;;
75297;SDS011;63896;45.990;18.688;2022-11-10T17:46:55;28.95;;;14.40;;
75297;SDS011;63896;45.990;18.688;2022-11-10T17:50:16;28.52;;;12.73;;
75297;SDS011;63896;45.990;18.688;2022-11-10T17:53:40;25.92;;;11.95;;
75297;SDS011;63896;45.990;18.688;2022-11-10T17:57:02;23.30;;;10.83;;
75297;SDS011;63896;45.990;18.688;2022-11-10T18:00:24;16.13;;;8.57;;
75297;SDS011;63896;45.990;18.688;2022-11-10T18:03:46;15.02;;;8.48;;
75297;SDS011;63896;45.990;18.688;2022-11-10T18:07:07;16.77;;;8.57;;
75297;SDS011;63896;45.990;18.688;2022-11-10T18:10:29;16.10;;;8.63;;
75297;SDS011;63896;45.990;18.688;2022-11-10T18:13:50;14.77;;;8.30;;
75297;SDS011;63896;45.990;18.688;2022-11-10T18:17:11;14.07;;;7.20;;
75297;SDS011;63896;45.990;18.688;2022-11-10T18:20:32;16.52;;;7.85;;
75297;SDS011;63896;45.990;18.688;2022-11-10T18:23:54;16.45;;;7.80;;
75297;SDS011;63896;45.990;18.688;2022-11-10T18:27:15;19.10;;;8.63;;
75297;SDS011;63896;45.990;18.688;2022-11-10T18:30:37;19.03;;;9.77;;
75297;SDS011;63896;45.990;18.688;2022-11-10T18:33:59;16.02;;;8.43;;
75297;SDS011;63896;45.990;18.688;2022-11-10T18:37:20;18.63;;;9.20;;
75297;SDS011;63896;45.990;18.688;2022-11-10T18:40:42;16.90;;;8.70;;
75297;SDS011;63896;45.990;18.688;2022-11-10T18:44:04;20.17;;;10.45;;
75297;SDS011;63896;45.990;18.688;2022-11-10T18:47:25;18.47;;;10.10;;
75297;SDS011;63896;45.990;18.688;2022-11-10T18:50:47;21.63;;;9.02;;
75297;SDS011;63896;45.990;18.688;2022-11-10T18:54:08;17.58;;;8.95;;
75297;SDS011;63896;45.990;18.688;2022-11-10T18:57:30;18.20;;;8.90;;
75297;SDS011;63896;45.990;18.688;2022-11-10T19:00:51;18.08;;;9.02;;
75297;SDS011;63896;45.990;18.688;2022-11-10T19:04:13;18.50;;;9.37;;
75297;SDS011;63896;45.990;18.688;2022-11-10T19:07:34;16.92;;;8.25;;
75297;SDS011;63896;45.990;18.688;2022-11-10T19:10:56;15.93;;;8.60;;
75297;SDS011;63896;45.990;18.688;2022-11-10T19:14:17;18.30;;;8.65;;
75297;SDS011;63896;45.990;18.688;2022-11-10T19:17:39;19.83;;;9.73;;
75297;SDS011;63896;45.990;18.688;2022-11-10T19:21:07;20.57;;;10.53;;
75297;SDS011;63896;45.990;18.688;2022-11-10T19:24:32;24.45;;;10.43;;
75297;SDS011;63896;45.990;18.688;2022-11-10T19:28:14;20.90;;;10.38;;
75297;SDS011;63896;45.990;18.688;2022-11-10T19:31:35;18.30;;;8.93;;
75297;SDS011;63896;45.990;18.688;2022-11-10T19:34:57;21.27;;;10.18;;
75297;SDS011;63896;45.990;18.688;2022-11-10T19:38:18;18.80;;;9.20;;
75297;SDS011;63896;45.990;18.688;2022-11-10T19:41:40;19.98;;;8.82;;
75297;SDS011;63896;45.990;18.688;2022-11-10T19:45:01;15.02;;;8.23;;
75297;SDS011;63896;45.990;18.688;2022-11-10T19:48:23;15.38;;;7.68;;
75297;SDS011;63896;45.990;18.688;2022-11-10T19:51:47;16.95;;;8.45;;
75297;SDS011;63896;45.990;18.688;2022-11-10T19:55:09;21.23;;;7.87;;
75297;SDS011;63896;45.990;18.688;2022-11-10T19:58:31;14.05;;;7.53;;
75297;SDS011;63896;45.990;18.688;2022-11-10T20:01:56;15.48;;;7.50;;
75297;SDS011;63896;45.990;18.688;2022-11-10T20:05:18;14.07;;;6.75;;
75297;SDS011;63896;45.990;18.688;2022-11-10T20:08:40;13.52;;;6.50;;
75297;SDS011;63896;45.990;18.688;2022-11-10T20:12:04;15.47;;;6.70;;
75297;SDS011;63896;45.990;18.688;2022-11-10T20:15:26;13.60;;;6.50;;
75297;SDS011;63896;45.990;18.688;2022-11-10T20:18:48;14.70;;;7.18;;
75297;SDS011;63896;45.990;18.688;2022-11-10T20:22:09;14.65;;;8.38;;
75297;SDS011;63896;45.990;18.688;2022-11-10T20:25:32;17.00;;;8.75;;
75297;SDS011;63896;45.990;18.688;2022-11-10T20:28:54;15.50;;;8.10;;
75297;SDS011;63896;45.990;18.688;2022-11-10T20:32:15;14.77;;;8.20;;
75297;SDS011;63896;45.990;18.688;2022-11-10T20:35:41;17.80;;;10.27;;
75297;SDS011;63896;45.990;18.688;2022-11-10T20:39:04;14.50;;;8.10;;
75297;SDS011;63896;45.990;18.688;2022-11-10T20:42:25;15.63;;;8.50;;
75297;SDS011;63896;45.990;18.688;2022-11-10T20:45:50;18.93;;;8.73;;
75297;SDS011;63896;45.990;18.688;2022-11-10T20:49:12;12.75;;;7.63;;
75297;SDS011;63896;45.990;18.688;2022-11-10T20:52:34;14.85;;;7.43;;
75297;SDS011;63896;45.990;18.688;2022-11-10T20:55:56;15.80;;;7.93;;
75297;SDS011;63896;45.990;18.688;2022-11-10T20:59:18;18.77;;;8.07;;
75297;SDS011;63896;45.990;18.688;2022-11-10T21:02:40;19.80;;;8.07;;
75297;SDS011;63896;45.990;18.688;2022-11-10T21:06:02;17.98;;;8.52;;
75297;SDS011;63896;45.990;18.688;2022-11-10T21:09:24;15.85;;;8.32;;
75297;SDS011;63896;45.990;18.688;2022-11-10T21:12:46;16.27;;;8.20;;
75297;SDS011;63896;45.990;18.688;2022-11-10T21:16:11;15.60;;;7.78;;
75297;SDS011;63896;45.990;18.688;2022-11-10T21:19:33;15.60;;;8.20;;
75297;SDS011;63896;45.990;18.688;2022-11-10T21:22:55;15.80;;;8.13;;
75297;SDS011;63896;45.990;18.688;2022-11-10T21:26:22;17.95;;;8.32;;
75297;SDS011;63896;45.990;18.688;2022-11-10T21:29:44;19.42;;;8.73;;
75297;SDS011;63896;45.990;18.688;2022-11-10T21:33:05;16.17;;;8.15;;
75297;SDS011;63896;45.990;18.688;2022-11-10T21:36:27;17.90;;;8.23;;
75297;SDS011;63896;45.990;18.688;2022-11-10T21:39:49;16.00;;;8.70;;